createdAt,value
2018-01-16T00:00:01.309Z,0
2018-01-16T00:00:41.890Z,0
2018-01-16T00:01:22.475Z,0
2018-01-16T00:02:03.031Z,0
2018-01-16T00:02:43.602Z,0
2018-01-16T00:03:24.156Z,0
2018-01-16T00:04:04.727Z,0
2018-01-16T00:04:45.271Z,0
2018-01-16T00:05:25.863Z,0
2018-01-16T00:06:06.427Z,0
2018-01-16T00:06:46.990Z,0
2018-01-16T00:07:27.553Z,0
2018-01-16T00:08:08.153Z,0
2018-01-16T00:08:48.706Z,0
2018-01-16T00:09:29.272Z,0
2018-01-16T00:10:09.836Z,0
2018-01-16T00:10:50.402Z,0
2018-01-16T00:11:30.975Z,0
2018-01-16T00:12:11.539Z,0
2018-01-16T00:12:52.105Z,0
2018-01-16T00:13:32.662Z,0
2018-01-16T00:14:13.229Z,0
2018-01-16T00:14:53.787Z,0
2018-01-16T00:15:34.417Z,0
2018-01-16T00:16:14.981Z,0
2018-01-16T00:16:55.537Z,0
2018-01-16T00:17:36.134Z,0
2018-01-16T00:18:16.709Z,0
2018-01-16T00:18:57.273Z,0
2018-01-16T00:19:37.842Z,0
2018-01-16T00:20:18.444Z,0
2018-01-16T00:20:59.020Z,0
2018-01-16T00:21:39.611Z,0
2018-01-16T00:22:20.161Z,0
2018-01-16T00:23:00.751Z,0
2018-01-16T00:23:41.315Z,0
2018-01-16T00:24:21.883Z,0
2018-01-16T00:25:02.440Z,0
2018-01-16T00:25:43.003Z,0
2018-01-16T00:26:23.569Z,0
2018-01-16T00:27:04.148Z,0
2018-01-16T00:27:44.799Z,0
2018-01-16T00:28:26.464Z,0
2018-01-16T00:29:07.066Z,0
2018-01-16T00:29:47.621Z,0
2018-01-16T00:30:28.196Z,0
2018-01-16T00:31:08.759Z,0
2018-01-16T00:31:49.326Z,0
2018-01-16T00:32:29.895Z,0
2018-01-16T00:33:10.453Z,0
2018-01-16T00:33:51.000Z,0
2018-01-16T00:34:31.572Z,0
2018-01-16T00:35:12.140Z,0
2018-01-16T00:35:52.722Z,0
2018-01-16T00:36:33.309Z,0
2018-01-16T00:37:13.864Z,0
2018-01-16T00:37:54.426Z,0
2018-01-16T00:38:34.984Z,0
2018-01-16T00:39:15.562Z,0
2018-01-16T00:39:56.160Z,0
2018-01-16T00:40:36.718Z,0
2018-01-16T00:41:17.296Z,0
2018-01-16T00:41:57.852Z,0
2018-01-16T00:42:38.415Z,0
2018-01-16T00:43:18.976Z,0
2018-01-16T00:43:59.536Z,0
2018-01-16T00:44:40.094Z,0
2018-01-16T00:45:20.664Z,0
2018-01-16T00:46:01.234Z,0
2018-01-16T00:46:41.780Z,0
2018-01-16T00:47:22.348Z,0
2018-01-16T00:48:02.922Z,0
2018-01-16T00:48:43.482Z,0
2018-01-16T00:49:24.056Z,0
2018-01-16T00:50:04.620Z,0
2018-01-16T00:50:45.179Z,0
2018-01-16T00:51:25.751Z,0
2018-01-16T00:52:06.318Z,0
2018-01-16T00:52:46.891Z,0
2018-01-16T00:53:27.468Z,0
2018-01-16T00:54:08.034Z,0
2018-01-16T00:54:48.622Z,0
2018-01-16T00:55:29.186Z,0
2018-01-16T00:56:09.757Z,0
2018-01-16T00:56:50.313Z,0
2018-01-16T00:57:30.894Z,0
2018-01-16T00:58:11.456Z,0
2018-01-16T00:58:52.024Z,0
2018-01-16T00:59:32.572Z,0
2018-01-16T01:00:13.132Z,0
2018-01-16T01:00:53.696Z,0
2018-01-16T01:01:34.260Z,0
2018-01-16T01:02:14.827Z,0
2018-01-16T01:02:55.384Z,0
2018-01-16T01:03:35.946Z,0
2018-01-16T01:04:16.514Z,0
2018-01-16T01:04:57.118Z,0
2018-01-16T01:05:37.707Z,0
2018-01-16T01:06:18.272Z,0
2018-01-16T01:06:58.822Z,0
2018-01-16T01:07:39.389Z,0
2018-01-16T01:08:19.965Z,0
2018-01-16T01:09:00.525Z,0
2018-01-16T01:09:41.107Z,0
2018-01-16T01:10:21.661Z,0
2018-01-16T01:11:02.247Z,0
2018-01-16T01:11:42.826Z,0
2018-01-16T01:12:23.385Z,0
2018-01-16T01:13:06.574Z,0
2018-01-16T01:13:47.137Z,0
2018-01-16T01:14:27.692Z,0
2018-01-16T01:15:08.250Z,0
2018-01-16T01:15:48.817Z,0
2018-01-16T01:16:29.378Z,0
2018-01-16T01:17:09.948Z,0
2018-01-16T01:17:50.514Z,0
2018-01-16T01:18:31.081Z,0
2018-01-16T01:19:11.653Z,0
2018-01-16T01:19:52.248Z,0
2018-01-16T01:20:32.814Z,0
2018-01-16T01:21:13.406Z,0
2018-01-16T01:21:53.966Z,0
2018-01-16T01:22:34.525Z,0
2018-01-16T01:23:15.105Z,0
2018-01-16T01:23:55.674Z,0
2018-01-16T01:24:36.213Z,0
2018-01-16T01:25:16.777Z,0
2018-01-16T01:25:57.344Z,0
2018-01-16T01:26:37.914Z,0
2018-01-16T01:27:18.468Z,0
2018-01-16T01:27:59.056Z,0
2018-01-16T01:28:39.638Z,0
2018-01-16T01:29:20.200Z,0
2018-01-16T01:30:00.774Z,0
2018-01-16T01:30:41.328Z,0
2018-01-16T01:31:21.887Z,0
2018-01-16T01:32:02.452Z,0
2018-01-16T01:32:43.024Z,0
2018-01-16T01:33:23.582Z,0
2018-01-16T01:34:04.167Z,0
2018-01-16T01:34:44.733Z,0
2018-01-16T01:35:25.290Z,0
2018-01-16T01:36:05.848Z,0
2018-01-16T01:36:46.394Z,0
2018-01-16T01:37:26.947Z,0
2018-01-16T01:38:07.520Z,0
2018-01-16T01:38:48.082Z,0
2018-01-16T01:39:28.660Z,0
2018-01-16T01:40:09.217Z,0
2018-01-16T01:40:49.765Z,0
2018-01-16T01:41:30.327Z,0
2018-01-16T01:42:10.889Z,0
2018-01-16T01:42:51.448Z,0
2018-01-16T01:43:32.002Z,0
2018-01-16T01:44:12.598Z,0
2018-01-16T01:44:53.160Z,0
2018-01-16T01:45:33.755Z,0
2018-01-16T01:46:14.309Z,0
2018-01-16T01:46:54.865Z,0
2018-01-16T01:47:35.441Z,0
2018-01-16T01:48:16.109Z,0
2018-01-16T01:48:56.672Z,0
2018-01-16T01:49:37.228Z,0
2018-01-16T01:50:17.796Z,0
2018-01-16T01:50:58.362Z,0
2018-01-16T01:51:38.918Z,0
2018-01-16T01:52:19.477Z,0
2018-01-16T01:53:00.028Z,0
2018-01-16T01:53:40.597Z,0
2018-01-16T01:54:21.152Z,0
2018-01-16T01:55:01.733Z,0
2018-01-16T01:55:42.297Z,0
2018-01-16T01:56:22.865Z,0
2018-01-16T01:57:03.450Z,0
2018-01-16T01:57:44.013Z,0
2018-01-16T01:58:24.573Z,0
2018-01-16T01:59:05.158Z,0
2018-01-16T01:59:45.717Z,0
2018-01-16T02:00:26.273Z,0
2018-01-16T02:01:06.846Z,0
2018-01-16T02:01:47.399Z,0
2018-01-16T02:02:27.951Z,0
2018-01-16T02:03:08.521Z,0
2018-01-16T02:03:49.092Z,0
2018-01-16T02:04:29.662Z,0
2018-01-16T02:05:10.228Z,0
2018-01-16T02:05:50.792Z,0
2018-01-16T02:06:31.339Z,0
2018-01-16T02:07:11.908Z,0
2018-01-16T02:07:52.476Z,0
2018-01-16T02:08:33.059Z,0
2018-01-16T02:09:13.622Z,0
2018-01-16T02:09:54.181Z,0
2018-01-16T02:10:34.752Z,0
2018-01-16T02:11:15.313Z,0
2018-01-16T02:11:55.874Z,0
2018-01-16T02:12:36.432Z,0
2018-01-16T02:13:17.028Z,0
2018-01-16T02:13:57.600Z,0
2018-01-16T02:14:38.154Z,0
2018-01-16T02:15:18.717Z,0
2018-01-16T02:15:59.269Z,0
2018-01-16T02:16:39.822Z,0
2018-01-16T02:17:20.382Z,0
2018-01-16T02:18:00.946Z,0
2018-01-16T02:18:41.517Z,0
2018-01-16T02:19:22.081Z,0
2018-01-16T02:20:02.656Z,0
2018-01-16T02:20:43.219Z,0
2018-01-16T02:21:23.793Z,0
2018-01-16T02:22:04.356Z,0
2018-01-16T02:22:44.939Z,0
2018-01-16T02:23:25.505Z,0
2018-01-16T02:24:06.060Z,0
2018-01-16T02:24:46.628Z,0
2018-01-16T02:25:27.183Z,0
2018-01-16T02:26:07.738Z,0
2018-01-16T02:26:48.293Z,0
2018-01-16T02:27:28.860Z,0
2018-01-16T02:28:09.430Z,0
2018-01-16T02:28:49.990Z,0
2018-01-16T02:29:30.577Z,0
2018-01-16T02:30:11.133Z,0
2018-01-16T02:30:51.695Z,0
2018-01-16T02:31:32.260Z,0
2018-01-16T02:32:12.816Z,0
2018-01-16T02:32:53.386Z,0
2018-01-16T02:33:33.932Z,0
2018-01-16T02:34:14.504Z,0
2018-01-16T02:34:55.068Z,0
2018-01-16T02:35:35.633Z,0
2018-01-16T02:36:16.194Z,0
2018-01-16T02:36:56.757Z,0
2018-01-16T02:37:37.312Z,0
2018-01-16T02:38:17.860Z,0
2018-01-16T02:38:58.430Z,0
2018-01-16T02:39:38.992Z,0
2018-01-16T02:40:19.564Z,0
2018-01-16T02:41:00.118Z,0
2018-01-16T02:41:40.680Z,0
2018-01-16T02:42:21.232Z,0
2018-01-16T02:43:01.785Z,0
2018-01-16T02:43:42.341Z,0
2018-01-16T02:44:22.926Z,0
2018-01-16T02:45:03.478Z,0
2018-01-16T02:45:44.044Z,0
2018-01-16T02:46:24.612Z,0
2018-01-16T02:47:05.170Z,0
2018-01-16T02:47:45.736Z,0
2018-01-16T02:48:26.309Z,0
2018-01-16T02:49:06.873Z,0
2018-01-16T02:49:47.431Z,0
2018-01-16T02:50:27.986Z,0
2018-01-16T02:51:08.543Z,0
2018-01-16T02:51:49.105Z,0
2018-01-16T02:52:29.684Z,0
2018-01-16T02:53:10.233Z,0
2018-01-16T02:53:50.791Z,0
2018-01-16T02:54:31.368Z,0
2018-01-16T02:55:11.934Z,0
2018-01-16T02:55:52.487Z,0
2018-01-16T02:56:33.047Z,0
2018-01-16T02:57:13.610Z,0
2018-01-16T02:57:54.169Z,0
2018-01-16T02:58:34.731Z,0
2018-01-16T02:59:15.295Z,0
2018-01-16T02:59:55.874Z,0
2018-01-16T03:00:36.458Z,0
2018-01-16T03:01:17.021Z,0
2018-01-16T03:01:57.578Z,0
2018-01-16T03:02:38.149Z,0
2018-01-16T03:03:18.724Z,0
2018-01-16T03:03:59.298Z,0
2018-01-16T03:04:39.849Z,0
2018-01-16T03:05:20.386Z,0
2018-01-16T03:06:00.950Z,0
2018-01-16T03:06:41.517Z,0
2018-01-16T03:07:22.104Z,0
2018-01-16T03:08:02.666Z,0
2018-01-16T03:08:43.233Z,0
2018-01-16T03:09:23.797Z,0
2018-01-16T03:10:04.356Z,0
2018-01-16T03:10:44.934Z,0
2018-01-16T03:11:25.483Z,0
2018-01-16T03:12:06.044Z,0
2018-01-16T03:12:46.600Z,0
2018-01-16T03:13:27.155Z,0
2018-01-16T03:14:07.750Z,0
2018-01-16T03:14:48.306Z,0
2018-01-16T03:15:28.865Z,0
2018-01-16T03:16:09.419Z,0
2018-01-16T03:16:50.004Z,0
2018-01-16T03:17:30.576Z,0
2018-01-16T03:18:11.166Z,0
2018-01-16T03:18:51.731Z,0
2018-01-16T03:19:32.303Z,0
2018-01-16T03:20:12.870Z,0
2018-01-16T03:20:53.440Z,0
2018-01-16T03:21:34.005Z,0
2018-01-16T03:22:14.573Z,0
2018-01-16T03:22:55.154Z,0
2018-01-16T03:23:35.709Z,0
2018-01-16T03:24:16.265Z,0
2018-01-16T03:24:56.835Z,0
2018-01-16T03:25:37.419Z,0
2018-01-16T03:26:17.964Z,0
2018-01-16T03:26:58.520Z,0
2018-01-16T03:27:39.091Z,0
2018-01-16T03:28:19.657Z,0
2018-01-16T03:29:00.220Z,0
2018-01-16T03:29:40.780Z,0
2018-01-16T03:30:21.345Z,0
2018-01-16T03:31:01.911Z,0
2018-01-16T03:31:42.472Z,0
2018-01-16T03:32:23.021Z,0
2018-01-16T03:33:03.573Z,0
2018-01-16T03:33:44.155Z,0
2018-01-16T03:34:24.725Z,0
2018-01-16T03:35:05.321Z,0
2018-01-16T03:35:45.878Z,0
2018-01-16T03:36:26.434Z,0
2018-01-16T03:37:06.986Z,0
2018-01-16T03:37:47.537Z,0
2018-01-16T03:38:28.157Z,0
2018-01-16T03:39:08.652Z,0
2018-01-16T03:39:49.216Z,0
2018-01-16T03:40:29.768Z,0
2018-01-16T03:41:10.348Z,0
2018-01-16T03:41:50.910Z,0
2018-01-16T03:42:31.488Z,0
2018-01-16T03:43:12.050Z,0
2018-01-16T03:43:52.620Z,0
2018-01-16T03:44:33.182Z,0
2018-01-16T03:45:13.756Z,0
2018-01-16T03:45:54.298Z,0
2018-01-16T03:46:34.864Z,0
2018-01-16T03:47:15.422Z,0
2018-01-16T03:47:55.976Z,0
2018-01-16T03:48:36.530Z,0
2018-01-16T03:49:17.083Z,0
2018-01-16T03:49:57.681Z,0
2018-01-16T03:50:38.234Z,0
2018-01-16T03:51:18.802Z,0
2018-01-16T03:51:59.353Z,0
2018-01-16T03:52:39.921Z,0
2018-01-16T03:53:20.492Z,0
2018-01-16T03:54:01.055Z,0
2018-01-16T03:54:41.615Z,0
2018-01-16T03:55:22.211Z,0
2018-01-16T03:56:02.776Z,0
2018-01-16T03:56:43.421Z,0
2018-01-16T03:57:23.982Z,0
2018-01-16T03:58:04.544Z,0
2018-01-16T03:58:45.107Z,0
2018-01-16T03:59:25.679Z,0
2018-01-16T04:00:06.244Z,0
2018-01-16T04:00:46.811Z,0
2018-01-16T04:01:27.388Z,0
2018-01-16T04:02:07.963Z,0
2018-01-16T04:02:48.534Z,0
2018-01-16T04:03:29.086Z,0
2018-01-16T04:04:09.647Z,0
2018-01-16T04:04:50.224Z,0
2018-01-16T04:05:30.770Z,0
2018-01-16T04:06:11.330Z,0
2018-01-16T04:06:51.892Z,0
2018-01-16T04:07:32.471Z,0
2018-01-16T04:08:13.018Z,0
2018-01-16T04:08:53.576Z,0
2018-01-16T04:09:34.137Z,0
2018-01-16T04:10:14.732Z,0
2018-01-16T04:10:55.301Z,0
2018-01-16T04:11:35.892Z,0
2018-01-16T04:12:16.444Z,0
2018-01-16T04:12:57.000Z,0
2018-01-16T04:13:37.561Z,0
2018-01-16T04:14:18.130Z,0
2018-01-16T04:14:58.708Z,0
2018-01-16T04:15:39.260Z,0
2018-01-16T04:16:19.853Z,0
2018-01-16T04:17:00.402Z,0
2018-01-16T04:17:40.957Z,0
2018-01-16T04:18:21.540Z,0
2018-01-16T04:19:02.102Z,0
2018-01-16T04:19:42.664Z,0
2018-01-16T04:20:23.235Z,0
2018-01-16T04:21:03.794Z,0
2018-01-16T04:21:44.358Z,0
2018-01-16T04:22:24.943Z,0
2018-01-16T04:23:05.510Z,0
2018-01-16T04:23:46.065Z,0
2018-01-16T04:24:26.632Z,0
2018-01-16T04:25:07.196Z,0
2018-01-16T04:25:47.758Z,0
2018-01-16T04:26:28.333Z,0
2018-01-16T04:27:08.893Z,0
2018-01-16T04:27:49.455Z,0
2018-01-16T04:28:30.007Z,0
2018-01-16T04:29:10.572Z,0
2018-01-16T04:29:51.130Z,0
2018-01-16T04:30:31.692Z,0
2018-01-16T04:31:12.252Z,0
2018-01-16T04:31:52.816Z,0
2018-01-16T04:32:33.376Z,0
2018-01-16T04:33:13.948Z,0
2018-01-16T04:33:54.517Z,0
2018-01-16T04:34:35.106Z,0
2018-01-16T04:35:15.675Z,0
2018-01-16T04:35:56.257Z,0
2018-01-16T04:36:36.817Z,0
2018-01-16T04:37:17.434Z,0
2018-01-16T04:37:58.003Z,0
2018-01-16T04:38:38.583Z,0
2018-01-16T04:39:19.169Z,0
2018-01-16T04:39:59.719Z,0
2018-01-16T04:40:40.297Z,0
2018-01-16T04:41:20.857Z,0
2018-01-16T04:42:01.415Z,0
2018-01-16T04:42:42.017Z,0
2018-01-16T04:43:22.585Z,0
2018-01-16T04:44:03.141Z,0
2018-01-16T04:44:43.705Z,0
2018-01-16T04:45:24.275Z,0
2018-01-16T04:46:04.841Z,0
2018-01-16T04:46:45.422Z,0
2018-01-16T04:47:25.972Z,0
2018-01-16T04:48:06.530Z,0
2018-01-16T04:48:47.101Z,0
2018-01-16T04:49:27.668Z,0
2018-01-16T04:50:08.224Z,0
2018-01-16T04:50:48.783Z,0
2018-01-16T04:51:29.355Z,0
2018-01-16T04:52:09.907Z,0
2018-01-16T04:52:50.467Z,0
2018-01-16T04:53:31.024Z,0
2018-01-16T04:54:11.595Z,0
2018-01-16T04:54:52.162Z,0
2018-01-16T04:55:32.718Z,0
2018-01-16T04:56:13.313Z,0
2018-01-16T04:56:53.868Z,0
2018-01-16T04:57:34.431Z,0
2018-01-16T04:58:14.985Z,0
2018-01-16T04:58:55.549Z,0
2018-01-16T04:59:36.129Z,0
2018-01-16T05:00:16.715Z,0
2018-01-16T05:00:57.287Z,0
2018-01-16T05:01:37.852Z,0
2018-01-16T05:02:18.414Z,0
2018-01-16T05:02:58.961Z,0
2018-01-16T05:03:39.517Z,0
2018-01-16T05:04:20.097Z,0
2018-01-16T05:05:00.645Z,0
2018-01-16T05:05:41.211Z,0
2018-01-16T05:06:21.787Z,0
2018-01-16T05:07:02.345Z,0
2018-01-16T05:07:42.895Z,0
2018-01-16T05:08:23.473Z,0
2018-01-16T05:09:04.039Z,0
2018-01-16T05:09:44.607Z,0
2018-01-16T05:10:25.181Z,0
2018-01-16T05:11:05.735Z,0
2018-01-16T05:11:46.297Z,0
2018-01-16T05:12:26.847Z,0
2018-01-16T05:13:07.411Z,0
2018-01-16T05:13:47.983Z,0
2018-01-16T05:14:28.543Z,0
2018-01-16T05:15:09.107Z,0
2018-01-16T05:15:49.726Z,0
2018-01-16T05:16:30.348Z,0
2018-01-16T05:17:10.929Z,0
2018-01-16T05:17:51.485Z,0
2018-01-16T05:18:32.058Z,0
2018-01-16T05:19:12.629Z,0
2018-01-16T05:19:53.179Z,0
2018-01-16T05:20:33.737Z,0
2018-01-16T05:21:14.293Z,0
2018-01-16T05:21:54.890Z,0
2018-01-16T05:22:35.415Z,0
2018-01-16T05:23:15.998Z,0
2018-01-16T05:23:56.557Z,0
2018-01-16T05:24:37.120Z,0
2018-01-16T05:25:17.744Z,0
2018-01-16T05:25:58.305Z,0
2018-01-16T05:26:38.857Z,0
2018-01-16T05:27:19.424Z,0
2018-01-16T05:27:59.983Z,0
2018-01-16T05:28:40.561Z,0
2018-01-16T05:29:21.133Z,0
2018-01-16T05:30:01.723Z,0
2018-01-16T05:30:42.278Z,0
2018-01-16T05:31:22.835Z,0
2018-01-16T05:32:03.394Z,0
2018-01-16T05:32:43.944Z,0
2018-01-16T05:33:24.502Z,0
2018-01-16T05:34:05.065Z,0
2018-01-16T05:34:45.626Z,0
2018-01-16T05:35:26.183Z,0
2018-01-16T05:36:06.740Z,0
2018-01-16T05:36:47.312Z,0
2018-01-16T05:37:27.855Z,0
2018-01-16T05:38:08.423Z,0
2018-01-16T05:38:48.987Z,0
2018-01-16T05:39:29.545Z,0
2018-01-16T05:40:10.099Z,0
2018-01-16T05:40:50.659Z,0
2018-01-16T05:41:31.243Z,0
2018-01-16T05:42:11.816Z,0
2018-01-16T05:42:52.367Z,0
2018-01-16T05:43:32.941Z,0
2018-01-16T05:44:13.582Z,0
2018-01-16T05:44:54.151Z,0
2018-01-16T05:45:34.710Z,0
2018-01-16T05:46:15.271Z,0
2018-01-16T05:46:55.850Z,0
2018-01-16T05:47:36.409Z,0
2018-01-16T05:48:16.971Z,0
2018-01-16T05:48:57.556Z,0
2018-01-16T05:49:38.147Z,0
2018-01-16T05:50:18.733Z,0
2018-01-16T05:50:59.306Z,0
2018-01-16T05:51:39.861Z,0
2018-01-16T05:52:20.417Z,0
2018-01-16T05:53:00.998Z,0
2018-01-16T05:53:41.558Z,0
2018-01-16T05:54:22.132Z,0
2018-01-16T05:55:02.700Z,0
2018-01-16T05:55:43.261Z,0
2018-01-16T05:56:23.829Z,0
2018-01-16T05:57:04.397Z,0
2018-01-16T05:57:44.959Z,0
2018-01-16T05:58:25.525Z,0
2018-01-16T05:59:06.095Z,0
2018-01-16T05:59:46.734Z,0
2018-01-16T06:00:27.286Z,0
2018-01-16T06:01:07.852Z,0
2018-01-16T06:01:48.439Z,0
2018-01-16T06:02:29.005Z,0
2018-01-16T06:03:09.568Z,0
2018-01-16T06:03:50.129Z,0
2018-01-16T06:04:30.691Z,0
2018-01-16T06:05:11.254Z,0
2018-01-16T06:05:51.876Z,0
2018-01-16T06:06:32.395Z,0
2018-01-16T06:07:12.950Z,0
2018-01-16T06:07:53.540Z,0
2018-01-16T06:08:34.100Z,0
2018-01-16T06:09:14.669Z,0
2018-01-16T06:09:55.237Z,0
2018-01-16T06:10:35.817Z,0
2018-01-16T06:11:16.432Z,0
2018-01-16T06:11:57.006Z,0
2018-01-16T06:12:37.638Z,0
2018-01-16T06:13:18.204Z,0
2018-01-16T06:13:58.779Z,0
2018-01-16T06:14:39.346Z,0
2018-01-16T06:15:19.909Z,0
2018-01-16T06:16:00.462Z,0
2018-01-16T06:16:41.034Z,0
2018-01-16T06:17:21.590Z,0
2018-01-16T06:18:02.171Z,0
2018-01-16T06:18:42.737Z,0
2018-01-16T06:19:23.291Z,0
2018-01-16T06:20:03.849Z,0
2018-01-16T06:20:44.404Z,0
2018-01-16T06:21:24.962Z,0
2018-01-16T06:22:05.566Z,0
2018-01-16T06:22:46.127Z,0
2018-01-16T06:23:26.762Z,0
2018-01-16T06:24:07.317Z,0
2018-01-16T06:24:47.877Z,0
2018-01-16T06:25:28.449Z,0
2018-01-16T06:26:09.003Z,0
2018-01-16T06:26:49.559Z,0
2018-01-16T06:27:30.122Z,0
2018-01-16T06:28:10.671Z,0
2018-01-16T06:28:51.269Z,0
2018-01-16T06:29:31.835Z,0
2018-01-16T06:30:12.394Z,0
2018-01-16T06:30:52.946Z,0
2018-01-16T06:31:33.525Z,0
2018-01-16T06:32:14.186Z,0
2018-01-16T06:32:54.737Z,0
2018-01-16T06:33:35.299Z,0
2018-01-16T06:34:15.888Z,0
2018-01-16T06:34:56.447Z,0
2018-01-16T06:35:37.041Z,0
2018-01-16T06:36:17.617Z,4
2018-01-16T06:36:58.177Z,4
2018-01-16T06:37:38.743Z,4
2018-01-16T06:38:19.335Z,0
2018-01-16T06:38:59.891Z,0
2018-01-16T06:39:40.453Z,0
2018-01-16T06:40:21.009Z,4
2018-01-16T06:41:01.572Z,4
2018-01-16T06:41:42.150Z,4
2018-01-16T06:42:22.769Z,4
2018-01-16T06:43:03.424Z,4
2018-01-16T06:43:44.012Z,4
2018-01-16T06:44:24.594Z,4
2018-01-16T06:45:05.150Z,4
2018-01-16T06:45:45.720Z,8
2018-01-16T06:46:26.281Z,8
2018-01-16T06:47:06.848Z,12
2018-01-16T06:47:47.426Z,12
2018-01-16T06:48:27.992Z,16
2018-01-16T06:49:08.567Z,16
2018-01-16T06:49:49.175Z,12
2018-01-16T06:50:29.760Z,16
2018-01-16T06:51:10.312Z,16
2018-01-16T06:51:50.875Z,16
2018-01-16T06:52:31.456Z,20
2018-01-16T06:53:12.008Z,24
2018-01-16T06:53:52.576Z,32
2018-01-16T06:54:33.146Z,36
2018-01-16T06:55:13.700Z,48
2018-01-16T06:55:54.263Z,36
2018-01-16T06:56:34.818Z,44
2018-01-16T06:57:15.388Z,48
2018-01-16T06:57:55.946Z,56
2018-01-16T06:58:36.517Z,56
2018-01-16T06:59:17.094Z,72
2018-01-16T06:59:57.648Z,92
2018-01-16T07:00:38.232Z,104
2018-01-16T07:01:18.810Z,96
2018-01-16T07:01:59.365Z,112
2018-01-16T07:02:39.934Z,116
2018-01-16T07:03:20.494Z,104
2018-01-16T07:04:01.101Z,124
2018-01-16T07:04:41.716Z,144
2018-01-16T07:05:22.449Z,148
2018-01-16T07:06:03.063Z,152
2018-01-16T07:06:43.730Z,160
2018-01-16T07:07:24.302Z,168
2018-01-16T07:08:04.895Z,180
2018-01-16T07:08:45.491Z,188
2018-01-16T07:09:26.114Z,196
2018-01-16T07:10:06.687Z,204
2018-01-16T07:10:47.268Z,204
2018-01-16T07:11:27.875Z,204
2018-01-16T07:12:08.447Z,204
2018-01-16T07:12:49.018Z,208
2018-01-16T07:15:01.814Z,212
2018-01-16T07:15:42.510Z,224
2018-01-16T07:16:23.112Z,232
2018-01-16T07:17:03.739Z,244
2018-01-16T07:17:44.376Z,260
2018-01-16T07:18:24.986Z,280
2018-01-16T07:19:05.647Z,292
2018-01-16T07:19:46.295Z,304
2018-01-16T07:20:26.918Z,312
2018-01-16T07:21:07.483Z,324
2018-01-16T07:21:48.141Z,320
2018-01-16T07:22:28.763Z,300
2018-01-16T07:23:09.360Z,268
2018-01-16T07:23:50.044Z,244
2018-01-16T07:24:30.694Z,244
2018-01-16T07:25:11.303Z,240
2018-01-16T07:25:51.876Z,264
2018-01-16T07:26:32.464Z,284
2018-01-16T07:27:13.058Z,312
2018-01-16T07:27:53.703Z,352
2018-01-16T07:28:34.421Z,388
2018-01-16T07:29:14.983Z,408
2018-01-16T07:29:55.571Z,400
2018-01-16T07:30:36.202Z,396
2018-01-16T07:31:16.827Z,400
2018-01-16T07:31:57.393Z,388
2018-01-16T07:32:38.043Z,356
2018-01-16T07:33:18.634Z,320
2018-01-16T07:33:59.248Z,304
2018-01-16T07:34:39.894Z,284
2018-01-16T07:35:20.531Z,272
2018-01-16T07:36:01.134Z,272
2018-01-16T07:36:41.701Z,288
2018-01-16T07:37:22.259Z,296
2018-01-16T07:38:02.815Z,296
2018-01-16T07:38:43.381Z,304
2018-01-16T07:39:23.941Z,312
2018-01-16T07:40:04.534Z,316
2018-01-16T07:40:45.091Z,304
2018-01-16T07:41:25.688Z,308
2018-01-16T07:42:06.265Z,316
2018-01-16T07:42:46.876Z,340
2018-01-16T07:43:27.472Z,384
2018-01-16T07:44:08.021Z,428
2018-01-16T07:44:48.598Z,456
2018-01-16T07:45:29.164Z,464
2018-01-16T07:46:09.774Z,476
2018-01-16T07:46:50.351Z,544
2018-01-16T07:47:30.957Z,620
2018-01-16T07:48:11.554Z,644
2018-01-16T07:48:52.122Z,708
2018-01-16T07:49:32.750Z,856
2018-01-16T07:50:13.391Z,984
2018-01-16T07:50:53.996Z,1252
2018-01-16T07:51:34.596Z,1484
2018-01-16T07:52:15.173Z,1632
2018-01-16T07:52:55.970Z,1572
2018-01-16T07:53:36.588Z,1492
2018-01-16T07:54:17.194Z,1484
2018-01-16T07:54:57.821Z,1448
2018-01-16T07:55:38.439Z,1312
2018-01-16T07:56:19.036Z,1236
2018-01-16T07:56:59.683Z,1500
2018-01-16T07:57:40.249Z,1716
2018-01-16T07:58:20.799Z,1752
2018-01-16T07:59:01.386Z,1728
2018-01-16T07:59:42.090Z,1772
2018-01-16T08:00:22.717Z,1876
2018-01-16T08:01:03.276Z,2340
2018-01-16T08:01:43.834Z,2820
2018-01-16T08:02:24.406Z,2888
2018-01-16T08:03:04.958Z,2640
2018-01-16T08:03:45.528Z,2472
2018-01-16T08:04:26.175Z,2448
2018-01-16T08:05:06.767Z,2736
2018-01-16T08:05:47.344Z,2828
2018-01-16T08:06:27.956Z,3008
2018-01-16T08:07:08.616Z,2880
2018-01-16T08:07:49.193Z,2972
2018-01-16T08:08:29.754Z,3076
2018-01-16T08:09:10.316Z,3028
2018-01-16T08:09:50.881Z,3080
2018-01-16T08:10:31.482Z,3036
2018-01-16T08:11:12.033Z,2976
2018-01-16T08:11:52.647Z,3132
2018-01-16T08:12:33.250Z,3112
2018-01-16T08:13:13.809Z,3160
2018-01-16T08:13:54.409Z,3200
2018-01-16T08:14:35.026Z,3196
2018-01-16T08:15:15.588Z,3080
2018-01-16T08:15:56.189Z,3040
2018-01-16T08:16:36.773Z,2928
2018-01-16T08:17:17.335Z,2972
2018-01-16T08:17:57.896Z,2996
2018-01-16T08:18:38.456Z,3244
2018-01-16T08:19:19.016Z,3264
2018-01-16T08:19:59.555Z,3248
2018-01-16T08:20:40.124Z,3376
2018-01-16T08:21:20.696Z,3468
2018-01-16T08:22:01.258Z,3552
2018-01-16T08:22:41.827Z,3872
2018-01-16T08:23:22.392Z,4148
2018-01-16T08:24:02.988Z,4216
2018-01-16T08:24:43.562Z,4244
2018-01-16T08:25:24.154Z,4300
2018-01-16T08:26:04.709Z,4128
2018-01-16T08:26:45.299Z,3864
2018-01-16T08:27:25.878Z,3576
2018-01-16T08:28:06.485Z,3236
2018-01-16T08:28:47.142Z,3120
2018-01-16T08:29:27.709Z,3052
2018-01-16T08:30:08.265Z,3012
2018-01-16T08:30:48.853Z,3124
2018-01-16T08:31:29.493Z,3320
2018-01-16T08:32:10.031Z,3376
2018-01-16T08:32:50.576Z,3488
2018-01-16T08:33:31.155Z,3412
2018-01-16T08:34:11.768Z,2928
2018-01-16T08:34:52.384Z,2364
2018-01-16T08:35:32.944Z,2084
2018-01-16T08:36:13.500Z,1912
2018-01-16T08:36:54.070Z,2188
2018-01-16T08:37:34.643Z,2524
2018-01-16T08:38:15.199Z,2328
2018-01-16T08:38:55.782Z,1992
2018-01-16T08:39:36.339Z,1584
2018-01-16T08:40:16.888Z,1304
2018-01-16T08:40:57.451Z,1108
2018-01-16T08:41:38.073Z,980
2018-01-16T08:42:18.648Z,920
2018-01-16T08:42:59.209Z,888
2018-01-16T08:43:39.778Z,916
2018-01-16T08:44:20.338Z,952
2018-01-16T08:45:00.931Z,988
2018-01-16T08:45:41.503Z,1100
2018-01-16T08:46:22.066Z,1196
2018-01-16T08:47:02.644Z,1268
2018-01-16T08:47:43.255Z,1376
2018-01-16T08:48:23.849Z,1684
2018-01-16T08:49:04.433Z,2348
2018-01-16T08:49:45.032Z,3688
2018-01-16T08:50:25.584Z,13288
2018-01-16T08:51:06.180Z,14784
2018-01-16T08:51:46.772Z,17536
2018-01-16T08:52:27.352Z,14368
2018-01-16T08:53:07.969Z,15680
2018-01-16T08:53:48.563Z,13888
2018-01-16T08:54:29.240Z,12232
2018-01-16T08:55:09.809Z,10232
2018-01-16T08:55:50.390Z,9136
2018-01-16T08:56:31.021Z,7696
2018-01-16T08:57:11.627Z,3396
2018-01-16T08:57:52.201Z,3132
2018-01-16T08:58:32.803Z,3240
2018-01-16T08:59:13.381Z,2752
2018-01-16T08:59:53.981Z,2292
2018-01-16T09:00:34.566Z,2072
2018-01-16T09:01:15.183Z,2104
2018-01-16T09:01:55.780Z,1804
2018-01-16T09:02:36.400Z,1640
2018-01-16T09:03:17.015Z,1668
2018-01-16T09:03:57.604Z,1740
2018-01-16T09:04:38.232Z,1788
2018-01-16T09:05:18.813Z,1908
2018-01-16T09:05:59.390Z,1904
2018-01-16T09:06:39.986Z,1824
2018-01-16T09:07:20.571Z,1860
2018-01-16T09:08:01.193Z,2092
2018-01-16T09:08:41.784Z,2600
2018-01-16T09:09:22.367Z,3604
2018-01-16T09:10:02.969Z,12036
2018-01-16T09:10:43.526Z,25536
2018-01-16T09:11:24.097Z,15776
2018-01-16T09:12:04.678Z,19808
2018-01-16T09:12:45.315Z,10752
2018-01-16T09:13:25.902Z,16256
2018-01-16T09:14:06.468Z,10120
2018-01-16T09:14:47.103Z,7000
2018-01-16T09:15:27.789Z,6584
2018-01-16T09:16:08.331Z,7048
2018-01-16T09:16:48.932Z,5556
2018-01-16T09:17:29.540Z,4352
2018-01-16T09:18:10.155Z,3508
2018-01-16T09:18:50.735Z,2904
2018-01-16T09:19:31.375Z,2636
2018-01-16T09:20:11.972Z,2636
2018-01-16T09:20:52.612Z,2704
2018-01-16T09:21:33.232Z,2772
2018-01-16T09:22:13.861Z,2800
2018-01-16T09:22:54.452Z,2820
2018-01-16T09:23:35.181Z,2852
2018-01-16T09:24:15.764Z,2852
2018-01-16T09:24:56.410Z,2932
2018-01-16T09:25:37.035Z,3072
2018-01-16T09:26:17.672Z,3140
2018-01-16T09:26:58.258Z,3116
2018-01-16T09:27:38.852Z,3108
2018-01-16T09:28:19.462Z,3164
2018-01-16T09:29:00.050Z,3312
2018-01-16T09:29:40.638Z,3972
2018-01-16T09:30:21.210Z,4228
2018-01-16T09:31:01.794Z,4064
2018-01-16T09:31:42.379Z,3748
2018-01-16T09:32:23.033Z,3772
2018-01-16T09:33:03.662Z,4108
2018-01-16T09:33:44.224Z,4312
2018-01-16T09:34:24.855Z,4736
2018-01-16T09:35:05.519Z,3940
2018-01-16T09:35:46.175Z,3860
2018-01-16T09:36:26.760Z,3808
2018-01-16T09:37:07.413Z,3820
2018-01-16T09:37:47.998Z,3844
2018-01-16T09:38:28.652Z,3852
2018-01-16T09:39:09.229Z,3844
2018-01-16T09:39:49.845Z,4140
2018-01-16T09:40:30.467Z,16608
2018-01-16T09:41:11.048Z,16864
2018-01-16T09:41:51.602Z,16288
2018-01-16T09:42:32.158Z,14560
2018-01-16T09:43:12.738Z,16064
2018-01-16T09:43:53.402Z,5472